createdAt,value
2024-02-23T00:01:32.451Z,66.76
2024-02-23T00:04:00.419Z,63.48
2024-02-23T00:06:29.507Z,61.78
2024-02-23T00:08:57.658Z,59.27
2024-02-23T00:11:26.309Z,54.18
2024-02-23T00:13:54.338Z,55.92
2024-02-23T00:16:22.453Z,57.68
2024-02-23T00:18:50.594Z,59.63
2024-02-23T00:21:18.544Z,64.03
2024-02-23T00:23:46.443Z,69.85
2024-02-23T00:26:14.349Z,66.31
2024-02-23T00:28:42.291Z,63.14
2024-02-23T00:31:10.475Z,59.88
2024-02-23T00:33:38.855Z,54.74
2024-02-23T00:36:07.190Z,54.98
2024-02-23T00:38:35.833Z,57.14
2024-02-23T00:41:04.032Z,58.80
2024-02-23T00:43:42.768Z,59.37
2024-02-23T00:46:10.991Z,66.37
2024-02-23T00:48:39.734Z,69.55
2024-02-23T00:51:08.927Z,66.70
2024-02-23T00:53:36.879Z,62.94
2024-02-23T00:56:05.409Z,61.27
2024-02-23T00:58:33.556Z,57.32
2024-02-23T01:01:01.967Z,53.88
2024-02-23T01:03:30.334Z,55.57
2024-02-23T01:05:58.471Z,59.33
2024-02-23T01:08:26.823Z,61.75
2024-02-23T01:10:54.865Z,68.11
2024-02-23T01:13:23.295Z,66.40
2024-02-23T01:15:52.043Z,64.79
2024-02-23T01:18:21.099Z,61.52
2024-02-23T01:20:48.988Z,56.51
2024-02-23T01:23:16.958Z,54.79
2024-02-23T01:25:45.440Z,56.62
2024-02-23T01:28:14.001Z,63.88
2024-02-23T01:30:42.077Z,67.02
2024-02-23T01:33:10.246Z,63.63
2024-02-23T01:35:38.637Z,60.78
2024-02-23T01:38:06.740Z,55.42
2024-02-23T01:40:37.745Z,54.49
2024-02-23T01:43:06.674Z,56.32
2024-02-23T01:45:34.705Z,57.90
2024-02-23T01:48:03.798Z,59.49
2024-02-23T01:50:32.434Z,60.54
2024-02-23T01:53:04.027Z,67.82
2024-02-23T01:55:36.458Z,71.29
2024-02-23T01:58:08.265Z,64.41
2024-02-23T02:00:38.270Z,60.98
2024-02-23T02:03:08.866Z,56.55
2024-02-23T02:05:39.412Z,55.78
2024-02-23T02:08:08.429Z,58.74
2024-02-23T02:10:36.636Z,60.69
2024-02-23T02:13:07.012Z,68.63
2024-02-23T02:15:35.001Z,67.03
2024-02-23T02:18:03.104Z,61.35
2024-02-23T02:20:35.228Z,56.16
2024-02-23T02:23:08.777Z,55.92
2024-02-23T02:25:36.829Z,57.57
2024-02-23T02:28:09.065Z,59.27
2024-02-23T02:30:37.140Z,60.71
2024-02-23T02:33:05.377Z,60.38
2024-02-23T02:35:33.376Z,67.94
2024-02-23T02:38:01.389Z,72.10
2024-02-23T02:40:29.274Z,65.99
2024-02-23T02:42:57.108Z,60.49
2024-02-23T02:45:25.501Z,54.60
2024-02-23T02:47:57.576Z,55.00
2024-02-23T02:50:26.146Z,56.77
2024-02-23T02:52:54.615Z,59.74
2024-02-23T02:55:22.766Z,63.23
2024-02-23T02:57:50.709Z,70.71
2024-02-23T03:00:18.834Z,67.00
2024-02-23T03:02:46.813Z,62.10
2024-02-23T03:05:14.916Z,59.82
2024-02-23T03:07:42.992Z,54.86
2024-02-23T03:10:11.120Z,55.53
2024-02-23T03:12:39.116Z,57.48
2024-02-23T03:15:07.586Z,59.33
2024-02-23T03:17:35.854Z,66.95
2024-02-23T03:20:12.768Z,70.01
2024-02-23T03:22:40.956Z,64.62
2024-02-23T03:25:09.530Z,62.67
2024-02-23T03:27:39.676Z,58.83
2024-02-23T03:30:09.677Z,56.38
2024-02-23T03:32:39.070Z,58.82
2024-02-23T03:35:09.883Z,63.49
2024-02-23T03:37:40.985Z,65.68
2024-02-23T03:40:11.467Z,62.70
2024-02-23T03:42:39.608Z,58.82
2024-02-23T03:45:07.762Z,57.88
2024-02-23T03:47:36.340Z,61.87
2024-02-23T03:50:07.067Z,65.08
2024-02-23T03:52:35.000Z,63.41
2024-02-23T03:55:04.810Z,59.81
2024-02-23T03:57:32.841Z,58.28
2024-02-23T04:00:00.992Z,62.01
2024-02-23T04:02:31.345Z,67.37
2024-02-23T04:04:59.267Z,64.54
2024-02-23T04:07:27.622Z,59.54
2024-02-23T04:09:56.274Z,58.18
2024-02-23T04:12:24.933Z,62.26
2024-02-23T04:14:53.955Z,65.50
2024-02-23T04:17:21.821Z,63.65
2024-02-23T04:19:50.056Z,61.25
2024-02-23T04:22:19.227Z,57.06
2024-02-23T04:24:48.032Z,57.77
2024-02-23T04:27:15.940Z,62.83
2024-02-23T04:29:44.025Z,64.82
2024-02-23T04:32:12.131Z,61.58
2024-02-23T04:34:41.579Z,60.03
2024-02-23T04:37:09.482Z,58.16
2024-02-23T04:39:39.239Z,61.26
2024-02-23T04:42:09.684Z,65.19
2024-02-23T04:44:38.018Z,61.40
2024-02-23T04:47:06.385Z,61.13
2024-02-23T04:49:34.559Z,56.81
2024-02-23T04:52:02.762Z,58.03
2024-02-23T04:54:30.643Z,62.41
2024-02-23T04:56:58.562Z,64.78
2024-02-23T04:59:26.904Z,61.32
2024-02-23T05:01:56.365Z,59.63
2024-02-23T05:04:24.728Z,56.00
2024-02-23T05:06:52.596Z,56.81
2024-02-23T05:09:22.213Z,63.12
2024-02-23T05:11:50.532Z,63.82
2024-02-23T05:14:18.590Z,60.04
2024-02-23T05:16:46.495Z,56.65
2024-02-23T05:19:14.816Z,59.34
2024-02-23T05:21:42.706Z,63.52
2024-02-23T05:24:13.221Z,63.31
2024-02-23T05:26:42.522Z,60.37
2024-02-23T05:29:10.429Z,55.64
2024-02-23T05:31:48.579Z,55.72
2024-02-23T05:34:17.000Z,60.32
2024-02-23T05:36:46.897Z,65.47
2024-02-23T05:39:16.715Z,64.58
2024-02-23T05:41:45.847Z,61.14
2024-02-23T05:44:14.880Z,56.94
2024-02-23T05:46:45.773Z,56.14
2024-02-23T05:49:13.885Z,62.60
2024-02-23T05:51:42.207Z,64.85
2024-02-23T05:54:11.322Z,61.70
2024-02-23T05:56:39.246Z,58.61
2024-02-23T05:59:08.637Z,58.34
2024-02-23T06:01:37.441Z,60.62
2024-02-23T06:04:06.641Z,66.23
2024-02-23T06:06:35.285Z,64.65
2024-02-23T06:09:04.873Z,61.07
2024-02-23T06:11:32.876Z,56.65
2024-02-23T06:14:00.830Z,55.76
2024-02-23T06:16:28.746Z,60.88
2024-02-23T06:18:56.712Z,64.54
2024-02-23T06:21:26.997Z,65.03
2024-02-23T06:23:55.200Z,62.96
2024-02-23T06:26:23.255Z,59.90
2024-02-23T06:28:51.422Z,56.26
2024-02-23T06:31:19.926Z,55.73
2024-02-23T06:33:51.053Z,62.04
2024-02-23T06:36:19.851Z,64.43
2024-02-23T06:38:48.991Z,62.51
2024-02-23T06:41:18.112Z,60.38
2024-02-23T06:43:47.165Z,56.36
2024-02-23T06:46:16.531Z,56.24
2024-02-23T06:48:47.192Z,58.03
2024-02-23T06:51:17.530Z,60.68
2024-02-23T06:53:46.647Z,66.42
2024-02-23T06:56:15.563Z,67.14
2024-02-23T06:58:43.924Z,61.74
2024-02-23T07:01:14.367Z,57.69
2024-02-23T07:03:45.101Z,56.52
2024-02-23T07:06:13.108Z,59.41
2024-02-23T07:08:41.312Z,62.51
2024-02-23T07:11:09.982Z,66.45
2024-02-23T07:13:38.119Z,64.38
2024-02-23T07:16:06.995Z,60.00
2024-02-23T07:18:37.263Z,55.30
2024-02-23T07:21:05.293Z,58.68
2024-02-23T07:23:33.418Z,63.45
2024-02-23T07:26:01.375Z,65.11
2024-02-23T07:28:29.728Z,61.40
2024-02-23T07:30:57.684Z,59.35
2024-02-23T07:33:26.298Z,58.15
2024-02-23T07:35:54.757Z,63.33
2024-02-23T07:38:22.730Z,64.74
2024-02-23T07:40:51.370Z,61.11
2024-02-23T07:43:20.177Z,57.53
2024-02-23T07:45:48.985Z,55.52
2024-02-23T07:48:16.861Z,58.90
2024-02-23T07:50:46.055Z,63.85
2024-02-23T07:53:13.996Z,65.35
2024-02-23T07:55:42.080Z,62.63
2024-02-23T07:58:10.968Z,57.89
2024-02-23T08:00:39.784Z,58.74
2024-02-23T08:03:09.442Z,61.73
2024-02-23T08:05:39.808Z,66.46
2024-02-23T08:08:08.236Z,67.31
2024-02-23T08:10:36.493Z,63.83
2024-02-23T08:13:06.833Z,60.11
2024-02-23T08:15:37.297Z,54.19
2024-02-23T08:18:06.274Z,53.44
2024-02-23T08:20:35.260Z,55.67
2024-02-23T08:23:03.658Z,59.87
2024-02-23T08:25:31.810Z,65.18
2024-02-23T08:28:00.616Z,67.56
2024-02-23T08:30:28.748Z,62.20
2024-02-23T08:32:57.159Z,60.13
2024-02-23T08:35:25.953Z,54.97
2024-02-23T08:37:53.964Z,54.29
2024-02-23T08:40:22.028Z,55.42
2024-02-23T08:42:51.481Z,57.94
2024-02-23T08:45:19.982Z,59.35
2024-02-23T08:47:48.100Z,61.16
2024-02-23T08:50:18.179Z,70.19
2024-02-23T08:52:46.367Z,69.29
2024-02-23T08:55:14.551Z,63.59
2024-02-23T08:57:42.651Z,60.40
2024-02-23T09:00:14.009Z,55.92
2024-02-23T09:02:43.634Z,53.49
2024-02-23T09:05:12.213Z,55.02
2024-02-23T09:07:40.351Z,57.18
2024-02-23T09:10:10.293Z,63.06
2024-02-23T09:12:38.148Z,67.41
2024-02-23T09:15:07.326Z,63.88
2024-02-23T09:17:36.224Z,59.87
2024-02-23T09:20:04.741Z,54.65
2024-02-23T09:22:32.698Z,55.30
2024-02-23T09:25:00.929Z,55.98
2024-02-23T09:27:29.143Z,58.37
2024-02-23T09:29:57.122Z,65.54
2024-02-23T09:32:25.183Z,67.77
2024-02-23T09:34:53.174Z,63.43
2024-02-23T09:37:21.854Z,56.72
2024-02-23T09:39:50.916Z,53.16
2024-02-23T09:42:24.126Z,54.54
2024-02-23T09:45:01.851Z,56.34
2024-02-23T09:47:30.820Z,58.22
2024-02-23T09:50:02.356Z,59.74
2024-02-23T09:52:30.465Z,60.78
2024-02-23T09:55:00.897Z,70.73
2024-02-23T09:57:29.545Z,71.89
2024-02-23T09:59:57.559Z,65.41
2024-02-23T10:02:26.494Z,60.79
2024-02-23T10:04:58.906Z,55.05
2024-02-23T10:07:27.052Z,54.14
2024-02-23T10:09:56.694Z,55.91
2024-02-23T10:12:24.937Z,58.55
2024-02-23T10:14:54.330Z,62.89
2024-02-23T10:17:22.308Z,68.90
2024-02-23T10:19:50.877Z,64.00
2024-02-23T10:22:18.805Z,60.61
2024-02-23T10:24:46.655Z,55.75
2024-02-23T10:27:15.608Z,53.26
2024-02-23T10:29:43.509Z,54.64
2024-02-23T10:32:18.164Z,56.06
2024-02-23T10:34:52.247Z,58.45
2024-02-23T10:37:20.998Z,61.08
2024-02-23T10:39:52.860Z,66.17
2024-02-23T10:42:25.969Z,70.31
2024-02-23T10:44:56.419Z,64.96
2024-02-23T10:47:25.423Z,59.12
2024-02-23T10:49:56.177Z,60.01
2024-02-23T10:52:27.784Z,58.66
2024-02-23T10:54:58.842Z,61.80
2024-02-23T10:57:28.410Z,68.33
2024-02-23T10:59:56.411Z,66.87
2024-02-23T11:02:27.406Z,62.82
2024-02-23T11:04:58.730Z,61.09
2024-02-23T11:07:29.436Z,58.00
2024-02-23T11:10:02.759Z,59.02
2024-02-23T11:12:31.194Z,61.63
2024-02-23T11:15:01.448Z,66.85
2024-02-23T11:17:32.608Z,66.20
2024-02-23T11:20:07.001Z,61.31
2024-02-23T11:22:39.077Z,56.39
2024-02-23T11:25:11.706Z,56.93
2024-02-23T11:27:43.637Z,58.15
2024-02-23T11:30:13.084Z,59.63
2024-02-23T11:32:55.664Z,64.10
2024-02-23T11:35:28.546Z,67.92
2024-02-23T11:38:02.003Z,64.27
2024-02-23T11:40:31.983Z,62.29
2024-02-23T11:43:01.837Z,56.71
2024-02-23T11:45:32.240Z,53.99
2024-02-23T11:48:01.246Z,55.73
2024-02-23T11:50:29.818Z,57.63
2024-02-23T11:52:58.767Z,59.22
2024-02-23T11:55:28.028Z,59.57
2024-02-23T11:58:01.732Z,60.05
2024-02-23T12:00:37.090Z,65.34
2024-02-23T12:03:13.856Z,71.45
2024-02-23T12:05:42.007Z,68.23
2024-02-23T12:08:10.146Z,59.77
2024-02-23T12:10:39.239Z,53.16
2024-02-23T12:13:07.501Z,51.96
2024-02-23T12:15:35.452Z,53.23
2024-02-23T12:18:05.321Z,55.96
2024-02-23T12:20:37.453Z,57.68
2024-02-23T12:23:05.923Z,59.23
2024-02-23T12:25:35.285Z,61.60
2024-02-23T12:28:05.078Z,69.52
2024-02-23T12:30:34.825Z,70.96
2024-02-23T12:33:09.471Z,65.28
2024-02-23T12:35:37.693Z,60.57
2024-02-23T12:38:05.784Z,54.54
2024-02-23T12:40:34.390Z,53.10
2024-02-23T12:43:03.039Z,54.87
2024-02-23T12:45:32.276Z,57.96
2024-02-23T12:48:00.194Z,59.42
2024-02-23T12:50:32.452Z,61.57
2024-02-23T12:53:02.217Z,70.46
2024-02-23T12:55:30.196Z,68.38
2024-02-23T12:57:58.204Z,62.37
2024-02-23T13:00:26.148Z,57.16
2024-02-23T13:02:54.329Z,59.58
2024-02-23T13:05:22.485Z,62.40
2024-02-23T13:07:52.058Z,62.28
2024-02-23T13:10:20.198Z,57.17
2024-02-23T13:12:48.941Z,58.77
2024-02-23T13:15:20.112Z,60.97
2024-02-23T13:17:50.153Z,62.21
2024-02-23T13:20:19.926Z,59.14
2024-02-23T13:22:48.587Z,58.89
2024-02-23T13:25:16.922Z,60.78
2024-02-23T13:27:44.926Z,61.85
2024-02-23T13:30:13.981Z,62.29
2024-02-23T13:32:42.547Z,60.39
2024-02-23T13:35:10.729Z,57.89
2024-02-23T13:37:38.731Z,59.57
2024-02-23T13:40:10.342Z,60.80
2024-02-23T13:42:42.562Z,61.68
2024-02-23T13:45:10.937Z,62.05
2024-02-23T13:47:42.972Z,59.32
2024-02-23T13:50:11.099Z,58.42
2024-02-23T13:52:39.165Z,59.54
2024-02-23T13:55:08.262Z,60.28
2024-02-23T13:57:36.917Z,61.02
2024-02-23T14:00:09.213Z,61.48
2024-02-23T14:02:38.186Z,62.08
2024-02-23T14:05:09.366Z,62.04
2024-02-23T14:07:38.178Z,61.98
2024-02-23T14:10:07.399Z,61.88
2024-02-23T14:12:35.615Z,58.14
2024-02-23T14:15:04.531Z,55.34
2024-02-23T14:17:32.651Z,56.91
2024-02-23T14:20:02.163Z,58.19
2024-02-23T14:22:30.935Z,59.40
2024-02-23T14:24:59.606Z,60.53
2024-02-23T14:27:31.705Z,60.94
2024-02-23T14:30:00.887Z,61.08
2024-02-23T14:32:29.291Z,61.25
2024-02-23T14:34:58.837Z,61.29
2024-02-23T14:37:29.168Z,61.89
2024-02-23T14:39:57.049Z,61.47
2024-02-23T14:42:25.041Z,57.48
2024-02-23T14:44:53.050Z,56.41
2024-02-23T14:47:29.082Z,58.05
2024-02-23T14:50:00.697Z,59.00
2024-02-23T14:52:28.866Z,59.64
2024-02-23T14:54:56.756Z,60.72
2024-02-23T14:57:24.739Z,60.91
2024-02-23T14:59:53.947Z,61.02
2024-02-23T15:02:23.889Z,61.36
2024-02-23T15:04:51.915Z,61.72
2024-02-23T15:07:21.077Z,62.69
2024-02-23T15:09:49.281Z,59.76
2024-02-23T15:12:17.670Z,55.40
2024-02-23T15:14:46.245Z,55.73
2024-02-23T15:17:14.197Z,57.36
2024-02-23T15:19:42.268Z,57.69
2024-02-23T15:22:15.006Z,58.45
2024-02-23T15:24:43.636Z,59.28
2024-02-23T15:27:11.492Z,59.89
2024-02-23T15:29:39.878Z,60.02
2024-02-23T15:32:10.643Z,60.64
2024-02-23T15:34:38.809Z,60.37
2024-02-23T15:37:08.488Z,60.40
2024-02-23T15:39:36.549Z,61.28
2024-02-23T15:42:05.187Z,61.71
2024-02-23T15:44:33.784Z,61.31
2024-02-23T15:47:01.891Z,60.05
2024-02-23T15:49:51.020Z,61.32
2024-02-23T15:52:18.008Z,62.44
2024-02-23T15:54:45.919Z,62.00
2024-02-23T15:57:15.125Z,54.76
2024-02-23T15:59:43.627Z,54.16
2024-02-23T16:02:13.231Z,55.38
2024-02-23T16:04:41.120Z,57.93
2024-02-23T16:07:10.645Z,58.49
2024-02-23T16:09:39.256Z,59.98
2024-02-23T16:12:11.242Z,60.19
2024-02-23T16:14:39.341Z,60.65
2024-02-23T16:17:09.110Z,60.60
2024-02-23T16:19:37.263Z,63.85
2024-02-23T16:22:06.212Z,67.91
2024-02-23T16:24:34.082Z,63.55
2024-02-23T16:27:01.992Z,53.29
2024-02-23T16:29:32.304Z,50.59
2024-02-23T16:32:00.351Z,51.85
2024-02-23T16:34:29.080Z,52.68
2024-02-23T16:36:57.188Z,57.18
2024-02-23T16:39:26.479Z,59.69
2024-02-23T16:41:56.284Z,59.74
2024-02-23T16:44:24.594Z,61.17
2024-02-23T16:46:52.895Z,62.06
2024-02-23T16:49:21.072Z,62.69
2024-02-23T16:51:49.009Z,60.90
2024-02-23T16:54:18.265Z,57.38
2024-02-23T16:56:46.887Z,57.40
2024-02-23T16:59:16.054Z,59.61
2024-02-23T17:01:47.871Z,61.50
2024-02-23T17:04:18.931Z,60.95
2024-02-23T17:06:46.934Z,62.85
2024-02-23T17:09:15.099Z,62.15
2024-02-23T17:11:43.350Z,55.96
2024-02-23T17:14:11.533Z,54.95
2024-02-23T17:16:39.430Z,57.22
2024-02-23T17:19:07.360Z,58.31
2024-02-23T17:21:36.115Z,60.67
2024-02-23T17:24:07.501Z,61.44
2024-02-23T17:26:36.005Z,62.09
2024-02-23T17:29:04.258Z,62.57
2024-02-23T17:31:32.601Z,57.16
2024-02-23T17:34:01.961Z,57.53
2024-02-23T17:36:30.832Z,58.88
2024-02-23T17:38:59.904Z,59.94
2024-02-23T17:41:28.238Z,61.02
2024-02-23T17:43:57.072Z,61.73
2024-02-23T17:46:28.556Z,62.39
2024-02-23T17:48:56.706Z,61.52
2024-02-23T17:51:24.976Z,57.28
2024-02-23T17:53:54.246Z,55.69
2024-02-23T17:56:22.793Z,56.86
2024-02-23T17:58:50.961Z,58.90
2024-02-23T18:01:21.255Z,60.69
2024-02-23T18:03:50.450Z,61.64
2024-02-23T18:06:18.888Z,62.39
2024-02-23T18:08:49.134Z,58.93
2024-02-23T18:11:17.747Z,57.32
2024-02-23T18:13:46.030Z,58.75
2024-02-23T18:16:20.776Z,59.09
2024-02-23T18:18:49.254Z,60.98
2024-02-23T18:21:19.510Z,61.79
2024-02-23T18:23:47.613Z,62.49
2024-02-23T18:26:19.006Z,60.26
2024-02-23T18:28:48.049Z,57.26
2024-02-23T18:31:20.980Z,57.42
2024-02-23T18:33:49.291Z,57.86
2024-02-23T18:36:19.080Z,59.23
2024-02-23T18:38:47.124Z,61.06
2024-02-23T18:41:16.545Z,62.52
2024-02-23T18:43:47.414Z,64.30
2024-02-23T18:46:16.846Z,58.22
2024-02-23T18:48:47.310Z,56.69
2024-02-23T18:51:15.437Z,59.50
2024-02-23T18:53:45.553Z,60.85
2024-02-23T18:56:13.941Z,61.97
2024-02-23T18:58:41.960Z,62.92
2024-02-23T19:01:12.515Z,61.01
2024-02-23T19:03:40.501Z,55.53
2024-02-23T19:06:10.089Z,54.02
2024-02-23T19:08:38.357Z,57.31
2024-02-23T19:11:07.807Z,59.34
2024-02-23T19:13:35.904Z,60.45
2024-02-23T19:16:04.095Z,59.88
2024-02-23T19:18:32.222Z,62.08
2024-02-23T19:21:00.186Z,63.19
2024-02-23T19:23:28.395Z,57.66
2024-02-23T19:25:57.072Z,55.61
2024-02-23T19:28:25.011Z,57.03
2024-02-23T19:30:54.222Z,59.29
2024-02-23T19:33:22.184Z,59.21
2024-02-23T19:35:50.253Z,60.71
2024-02-23T19:38:18.634Z,63.04
2024-02-23T19:40:47.646Z,60.27
2024-02-23T19:43:16.205Z,55.91
2024-02-23T19:45:44.190Z,56.15
2024-02-23T19:48:12.391Z,55.52
2024-02-23T19:50:40.383Z,58.46
2024-02-23T19:53:08.767Z,57.37
2024-02-23T19:55:41.809Z,60.18
2024-02-23T19:58:09.782Z,64.62
2024-02-23T20:00:41.466Z,62.72
2024-02-23T20:03:10.756Z,54.83
2024-02-23T20:05:39.064Z,54.71
2024-02-23T20:08:07.928Z,57.80
2024-02-23T20:10:36.006Z,59.11
2024-02-23T20:13:06.833Z,59.58
2024-02-23T20:15:34.869Z,58.41
2024-02-23T20:18:04.692Z,61.15
2024-02-23T20:20:36.267Z,64.13
2024-02-23T20:23:04.685Z,65.41
2024-02-23T20:25:35.127Z,59.76
2024-02-23T20:28:03.138Z,52.50
2024-02-23T20:30:31.142Z,51.04
2024-02-23T20:33:01.061Z,52.34
2024-02-23T20:35:29.853Z,56.34
2024-02-23T20:37:59.580Z,56.28
2024-02-23T20:40:28.035Z,60.31
2024-02-23T20:42:55.977Z,62.63
2024-02-23T20:45:24.115Z,66.77
2024-02-23T20:47:52.097Z,59.24
2024-02-23T20:50:21.490Z,54.64
2024-02-23T20:52:49.506Z,54.25
2024-02-23T20:55:17.736Z,57.64
2024-02-23T20:57:45.772Z,57.25
2024-02-23T21:00:14.199Z,58.32
2024-02-23T21:02:42.198Z,62.11
2024-02-23T21:05:10.493Z,69.09
2024-02-23T21:07:38.904Z,59.14
2024-02-23T21:10:09.279Z,56.46
2024-02-23T21:12:38.643Z,58.19
2024-02-23T21:15:07.704Z,60.54
2024-02-23T21:17:35.813Z,63.45
2024-02-23T21:20:04.667Z,64.29
2024-02-23T21:22:33.035Z,64.09
2024-02-23T21:25:01.556Z,55.50
2024-02-23T21:27:30.743Z,52.85
2024-02-23T21:29:59.296Z,56.85
2024-02-23T21:32:28.129Z,56.49
2024-02-23T21:34:57.823Z,58.59
2024-02-23T21:37:25.844Z,58.52
2024-02-23T21:39:54.201Z,60.20
2024-02-23T21:42:22.082Z,60.59
2024-02-23T21:44:50.631Z,64.22
2024-02-23T21:47:18.670Z,64.86
2024-02-23T21:49:47.472Z,63.51
2024-02-23T21:52:16.108Z,56.92
2024-02-23T21:54:46.089Z,53.89
2024-02-23T21:57:14.404Z,53.98
2024-02-23T21:59:43.142Z,55.45
2024-02-23T22:02:11.566Z,60.83
2024-02-23T22:04:40.919Z,66.70
2024-02-23T22:07:14.089Z,64.86
2024-02-23T22:09:46.129Z,57.26
2024-02-23T22:12:15.692Z,53.66
2024-02-23T22:14:44.233Z,56.86
2024-02-23T22:17:13.067Z,58.85
2024-02-23T22:19:41.640Z,59.53
2024-02-23T22:22:10.205Z,61.12
2024-02-23T22:24:39.728Z,65.95
2024-02-23T22:27:08.914Z,67.51
2024-02-23T22:29:36.993Z,64.18
2024-02-23T22:32:06.416Z,57.03
2024-02-23T22:34:38.858Z,52.19
2024-02-23T22:37:06.791Z,52.94
2024-02-23T22:39:34.657Z,54.73
2024-02-23T22:42:03.518Z,55.39
2024-02-23T22:44:32.714Z,57.18
2024-02-23T22:47:01.016Z,58.21
2024-02-23T22:49:29.230Z,62.59
2024-02-23T22:51:57.419Z,70.28
2024-02-23T22:54:25.353Z,66.90
2024-02-23T22:56:53.495Z,59.66
2024-02-23T22:59:22.941Z,53.72
2024-02-23T23:01:50.882Z,54.52
2024-02-23T23:04:19.007Z,55.10
2024-02-23T23:06:47.300Z,55.31
2024-02-23T23:09:17.606Z,56.99
2024-02-23T23:11:45.925Z,59.99
2024-02-23T23:14:14.858Z,60.53
2024-02-23T23:16:42.764Z,66.90
2024-02-23T23:19:11.033Z,70.76
2024-02-23T23:21:38.981Z,64.15
2024-02-23T23:24:07.269Z,60.63
2024-02-23T23:26:35.347Z,53.49
2024-02-23T23:29:03.320Z,52.07
2024-02-23T23:31:31.197Z,53.41
2024-02-23T23:34:01.303Z,54.05
2024-02-23T23:36:29.284Z,56.81
2024-02-23T23:38:57.298Z,58.90
2024-02-23T23:41:27.612Z,58.83
2024-02-23T23:43:58.205Z,64.25
2024-02-23T23:46:26.132Z,69.81
2024-02-23T23:48:55.295Z,64.53
2024-02-23T23:51:23.414Z,59.76
2024-02-23T23:53:56.730Z,52.79
2024-02-23T23:56:25.693Z,53.28
2024-02-23T23:58:53.778Z,54.88
